createdAt,value
2022-11-24T00:04:55.794Z,97340.28
2022-11-24T00:09:57.569Z,97333.56
2022-11-24T00:14:59.365Z,97336.22
2022-11-24T00:20:01.133Z,97340.88
2022-11-24T00:25:02.935Z,97346.41
2022-11-24T00:30:05.077Z,97349.44
2022-11-24T00:35:07.786Z,97350.88
2022-11-24T00:40:09.879Z,97349.28
2022-11-24T00:45:14.182Z,97355.31
2022-11-24T00:50:16.426Z,97351.25
2022-11-24T00:55:18.205Z,97352.16
2022-11-24T01:00:20.125Z,97365.72
2022-11-24T01:05:21.936Z,97365.72
2022-11-24T01:10:23.730Z,97379.59
2022-11-24T01:15:26.332Z,97378.94
2022-11-24T01:20:28.141Z,97382.59
2022-11-24T01:25:29.908Z,97394.94
2022-11-24T01:30:31.726Z,97405.16
2022-11-24T01:35:33.628Z,97396.38
2022-11-24T01:40:35.483Z,97401.13
2022-11-24T01:45:41.251Z,97404.91
2022-11-24T01:50:43.800Z,97403.81
2022-11-24T01:55:47.004Z,97412.34
2022-11-24T02:00:49.869Z,97402.31
2022-11-24T02:06:00.806Z,97406.53
2022-11-24T02:11:05.115Z,97409.69
2022-11-24T02:16:09.186Z,97408.09
2022-11-24T02:21:16.145Z,97418.03
2022-11-24T02:26:40.411Z,97410.59
2022-11-24T02:31:47.107Z,97414.22
2022-11-24T02:36:48.922Z,97419.13
2022-11-24T02:41:56.921Z,97420.38
2022-11-24T02:47:09.892Z,97425.25
2022-11-24T02:52:11.700Z,97433.66
2022-11-24T02:57:13.472Z,97436.34
2022-11-24T03:02:15.398Z,97430.16
2022-11-24T03:07:17.273Z,97437.06
2022-11-24T03:12:19.101Z,97437.53
2022-11-24T03:17:20.902Z,97441.16
2022-11-24T03:22:22.704Z,97440.22
2022-11-24T03:27:24.486Z,97441.53
2022-11-24T03:32:26.301Z,97451.09
2022-11-24T03:37:28.437Z,97455.22
2022-11-24T03:42:30.216Z,97461.22
2022-11-24T03:47:32.006Z,97454.59
2022-11-24T03:52:33.822Z,97458.53
2022-11-24T03:57:35.629Z,97472.88
2022-11-24T04:02:38.196Z,97463.78
2022-11-24T04:07:40.353Z,97475.88
2022-11-24T04:12:45.000Z,97476.22
2022-11-24T04:17:48.462Z,97475.56
2022-11-24T04:22:51.857Z,97483.41
2022-11-24T04:27:55.540Z,97481.63
2022-11-24T04:32:57.492Z,97488.69
2022-11-24T04:38:03.079Z,97503.03
2022-11-24T04:43:04.966Z,97507.13
2022-11-24T04:48:06.797Z,97508.38
2022-11-24T04:53:09.519Z,97513.56
2022-11-24T04:58:11.672Z,97522.38
2022-11-24T05:03:13.478Z,97532.09
2022-11-24T05:08:15.337Z,97529.38
2022-11-24T05:13:17.138Z,97539.09
2022-11-24T05:18:18.968Z,97541.88
2022-11-24T05:23:20.771Z,97547.19
2022-11-24T05:28:22.559Z,97554.72
2022-11-24T05:33:24.484Z,97554.22
2022-11-24T05:38:26.910Z,97566.78
2022-11-24T05:43:29.006Z,97564.50
2022-11-24T05:48:30.793Z,97558.44
2022-11-24T05:53:32.606Z,97568.34
2022-11-24T05:58:34.414Z,97573.97
2022-11-24T06:03:36.268Z,97581.16
2022-11-24T06:08:38.102Z,97584.56
2022-11-24T06:13:41.953Z,97597.88
2022-11-24T06:18:43.954Z,97618.94
2022-11-24T06:23:48.671Z,97619.19
2022-11-24T06:28:50.472Z,97624.72
2022-11-24T06:33:52.374Z,97626.41
2022-11-24T06:38:54.758Z,97625.09
2022-11-24T06:43:56.632Z,97631.38
2022-11-24T06:48:59.963Z,97633.84
2022-11-24T06:54:01.916Z,97643.94
2022-11-24T06:59:03.797Z,97654.69
2022-11-24T07:04:05.570Z,97642.81
2022-11-24T07:09:09.405Z,97658.75
2022-11-24T07:14:11.263Z,97667.38
2022-11-24T07:19:13.078Z,97670.63
2022-11-24T07:24:14.937Z,97672.00
2022-11-24T07:29:16.758Z,97673.38
2022-11-24T07:34:18.563Z,97679.69
2022-11-24T07:39:20.472Z,97684.41
2022-11-24T07:44:22.321Z,97697.28
2022-11-24T07:49:24.156Z,97699.44
2022-11-24T07:54:25.987Z,97696.53
2022-11-24T07:59:27.863Z,97701.91
2022-11-24T08:04:29.732Z,97706.66
2022-11-24T08:09:31.492Z,97703.75
2022-11-24T08:14:33.566Z,97690.09
2022-11-24T08:19:35.733Z,97703.13
2022-11-24T08:24:38.083Z,97703.47
2022-11-24T08:29:40.081Z,97706.06
2022-11-24T08:34:41.980Z,97710.88
2022-11-24T08:39:43.799Z,97713.78
2022-11-24T08:44:45.592Z,97716.72
2022-11-24T08:49:47.632Z,97716.47
2022-11-24T08:54:50.468Z,97717.72
2022-11-24T08:59:52.409Z,97722.66
2022-11-24T09:04:54.217Z,97730.28
2022-11-24T09:09:56.069Z,97732.75
2022-11-24T09:14:57.882Z,97734.66
2022-11-24T09:19:59.662Z,97737.00
2022-11-24T09:25:01.523Z,97741.03
2022-11-24T09:30:04.328Z,97727.31
2022-11-24T09:35:07.423Z,97727.31
2022-11-24T09:40:13.889Z,97725.28
2022-11-24T09:45:35.387Z,97732.66
2022-11-24T09:50:40.361Z,97738.75
2022-11-24T09:55:47.299Z,97736.72
2022-11-24T10:00:52.387Z,97730.81
2022-11-24T10:05:54.560Z,97737.91
2022-11-24T10:11:03.323Z,97742.59
2022-11-24T10:16:22.362Z,97742.31
2022-11-24T10:21:47.500Z,97743.97
2022-11-24T10:26:57.884Z,97752.06
2022-11-24T10:32:03.931Z,97746.75
2022-11-24T10:37:11.690Z,97747.28
2022-11-24T10:42:13.490Z,97762.22
2022-11-24T10:47:20.077Z,97752.66
2022-11-24T10:52:23.436Z,97748.31
2022-11-24T10:57:37.060Z,97743.56
2022-11-24T11:02:40.377Z,97741.03
2022-11-24T11:07:42.291Z,97741.66
2022-11-24T11:12:45.205Z,97737.75
2022-11-24T11:17:47.285Z,97744.78
2022-11-24T11:22:50.461Z,97745.66
2022-11-24T11:28:18.435Z,97751.94
2022-11-24T11:38:49.012Z,97747.38
2022-11-24T11:44:01.307Z,97745.72
2022-11-24T11:49:03.446Z,97757.34
2022-11-24T11:54:14.407Z,97760.44
2022-11-24T11:59:34.995Z,97765.84
2022-11-24T12:04:52.703Z,97762.88
2022-11-24T12:10:10.732Z,97764.91
2022-11-24T12:15:23.329Z,97770.19
2022-11-24T12:20:55.994Z,97774.22
2022-11-24T12:26:08.100Z,97781.34
2022-11-24T12:31:31.701Z,97777.56
2022-11-24T12:36:51.858Z,97777.50
2022-11-24T12:42:02.500Z,97786.81
2022-11-24T12:47:10.407Z,97788.09
2022-11-24T12:52:25.508Z,97794.31
2022-11-24T12:57:33.172Z,97798.66
2022-11-24T13:03:25.949Z,97794.19
2022-11-24T13:08:30.003Z,97789.78
2022-11-24T13:13:57.997Z,97793.78
2022-11-24T13:19:10.180Z,97805.13
2022-11-24T13:24:20.379Z,97798.63
2022-11-24T13:29:28.575Z,97808.31
2022-11-24T13:34:40.193Z,97807.09
2022-11-24T13:39:53.602Z,97812.44
2022-11-24T13:45:07.157Z,97821.97
2022-11-24T13:50:18.920Z,97830.09
2022-11-24T13:55:34.047Z,97823.88
2022-11-24T14:01:06.044Z,97830.16
2022-11-24T14:06:34.563Z,97830.50
2022-11-24T14:11:36.677Z,97833.22
2022-11-24T14:16:38.657Z,97843.34
2022-11-24T14:21:45.176Z,97852.16
2022-11-24T14:26:47.753Z,97855.97
2022-11-24T14:31:58.840Z,97857.16
2022-11-24T14:37:01.532Z,97859.13
2022-11-24T14:42:17.632Z,97864.28
2022-11-24T14:47:30.859Z,97869.69
2022-11-24T14:52:34.592Z,97878.94
2022-11-24T14:57:38.077Z,97889.59
2022-11-24T15:02:44.789Z,97896.41
2022-11-24T15:07:48.439Z,97899.22
2022-11-24T15:12:57.354Z,97899.00
2022-11-24T15:18:00.970Z,97901.34
2022-11-24T15:23:28.593Z,97914.47
2022-11-24T15:28:31.461Z,97917.53
2022-11-24T15:33:33.257Z,97931.47
2022-11-24T15:38:35.376Z,97932.31
2022-11-24T15:43:42.148Z,97932.78
2022-11-24T15:48:43.980Z,97946.56
2022-11-24T15:53:55.680Z,97938.03
2022-11-24T15:59:01.831Z,97946.16
2022-11-24T16:04:03.815Z,97954.44
2022-11-24T16:09:05.640Z,97960.47
2022-11-24T16:14:07.509Z,97962.72
2022-11-24T16:19:11.199Z,97971.38
2022-11-24T16:24:13.234Z,97977.28
2022-11-24T16:29:15.174Z,97973.00
2022-11-24T16:34:17.210Z,97980.00
2022-11-24T16:39:19.020Z,97991.53
2022-11-24T16:44:20.830Z,97982.72
2022-11-24T16:49:22.757Z,97983.84
2022-11-24T16:54:25.732Z,97989.25
2022-11-24T16:59:27.573Z,97994.56
2022-11-24T17:04:29.358Z,97996.50
2022-11-24T17:09:33.870Z,97995.16
2022-11-24T17:14:39.944Z,97995.09
2022-11-24T17:19:42.485Z,98002.16
2022-11-24T17:24:44.426Z,98012.97
2022-11-24T17:29:46.340Z,98017.25
2022-11-24T17:34:48.187Z,98020.75
2022-11-24T17:40:05.904Z,98016.81
2022-11-24T17:45:11.864Z,98029.91
2022-11-24T17:50:14.085Z,98024.50
2022-11-24T17:55:15.943Z,98025.72
2022-11-24T18:00:18.358Z,98041.72
2022-11-24T18:05:21.357Z,98042.44
2022-11-24T18:10:23.267Z,98044.69
2022-11-24T18:15:25.577Z,98045.88
2022-11-24T18:20:29.093Z,98062.78
2022-11-24T18:25:31.082Z,98065.25
2022-11-24T18:30:32.978Z,98071.69
2022-11-24T18:35:34.819Z,98075.25
2022-11-24T18:40:40.612Z,98065.44
2022-11-24T18:45:42.481Z,98064.06
2022-11-24T18:50:44.275Z,98067.88
2022-11-24T18:55:55.232Z,98067.69
2022-11-24T19:01:18.244Z,98059.56
2022-11-24T19:06:23.178Z,98062.19
2022-11-24T19:11:32.474Z,98060.50
2022-11-24T19:16:35.130Z,98063.69
2022-11-24T19:21:38.690Z,98074.25
2022-11-24T19:26:40.898Z,98083.22
2022-11-24T19:31:44.024Z,98092.56
2022-11-24T19:36:45.892Z,98096.88
2022-11-24T19:41:47.707Z,98089.72
2022-11-24T19:46:50.106Z,98088.25
2022-11-24T19:51:53.438Z,98088.66
2022-11-24T19:56:56.411Z,98099.25
2022-11-24T20:01:58.523Z,98099.94
2022-11-24T20:07:00.564Z,98100.81
2022-11-24T20:12:02.654Z,98104.66
2022-11-24T20:17:06.745Z,98107.09
2022-11-24T20:22:08.608Z,98116.59
2022-11-24T20:27:10.477Z,98124.31
2022-11-24T20:32:17.535Z,98133.81
2022-11-24T20:37:19.462Z,98128.88
2022-11-24T20:42:21.287Z,98135.84
2022-11-24T20:47:23.108Z,98140.56
2022-11-24T20:52:24.988Z,98146.66
2022-11-24T20:57:26.785Z,98138.88
2022-11-24T21:02:28.684Z,98149.00
2022-11-24T21:07:30.598Z,98144.38
2022-11-24T21:12:32.433Z,98148.63
2022-11-24T21:17:34.456Z,98154.69
2022-11-24T21:22:36.343Z,98158.78
2022-11-24T21:27:38.168Z,98164.19
2022-11-24T21:32:40.070Z,98162.59
2022-11-24T21:37:42.087Z,98161.47
2022-11-24T21:42:43.907Z,98163.97
2022-11-24T21:47:47.313Z,98168.69
2022-11-24T21:52:49.489Z,98168.00
2022-11-24T21:57:51.469Z,98181.31
2022-11-24T22:02:54.852Z,98178.25
2022-11-24T22:07:56.770Z,98181.50
2022-11-24T22:12:58.664Z,98182.88
2022-11-24T22:18:00.457Z,98186.03
2022-11-24T22:23:02.784Z,98189.19
2022-11-24T22:28:04.605Z,98189.53
2022-11-24T22:33:06.418Z,98193.22
2022-11-24T22:38:08.292Z,98198.84
2022-11-24T22:43:10.090Z,98199.53
2022-11-24T22:48:12.176Z,98202.56
2022-11-24T22:53:13.968Z,98209.09
2022-11-24T22:58:15.752Z,98210.09
2022-11-24T23:03:17.619Z,98207.94
2022-11-24T23:08:19.467Z,98222.47
2022-11-24T23:13:21.259Z,98223.81
2022-11-24T23:18:23.044Z,98214.34
2022-11-24T23:23:24.834Z,98220.38
2022-11-24T23:28:26.607Z,98221.56
2022-11-24T23:33:28.676Z,98225.81
2022-11-24T23:38:32.653Z,98227.22
2022-11-24T23:43:35.770Z,98220.06
2022-11-24T23:48:38.353Z,98220.06
2022-11-24T23:53:41.739Z,98223.16
2022-11-24T23:58:43.771Z,98221.13
